Fairchance, Pennsylvania
Current Conditions -  °F | °C
As of 10:53 AM on Wednesday 22 Oct 2014 (Local Time) from KMGW Reporting Station
Overcast Overcast  
Wind Chill:   Ceiling: 1300
Heat Index:   Visibility: 10mi
Dew Point:   Wind: 13mph
Humidity: 77%   Direction: 10°N
Pressure: 30.15"   Gusts: NA
Location:  39.82°N, 79.75°W
Report Text: KMGW 221453Z 01011KT 10SM OVC013 09/06 A3015 RMK AO2 SLP213 T00940056 51018
Loading
Personal Weather Stations






























Interactive Weather Map
Tropical Storm Tracking
New forecast layout! Learn more

10-Day Weather Forecast

Advertisements
Track Severe Weather on mobile